< < Back
Terminal Aerodrome Forecast


Current Version              Previous Versions:   1  2  3  4  5  6  7  8  9  

Terminal Aerodrome Forecast

710
FTUS44 KBMX 220500
TAFMGM
TAF
KMGM 220523Z 2206/2306 01005KT P6SM SKC=

Latest METAR

064
SAUS80 KWBC 221200 RRC
MTRMGM
METAR KMGM 221153Z 02005KT 10SM CLR 12/08 A3010 RMK AO2 SLP192 7////
T01170083 10128 20094 53020


USA.gov is the U.S. government's official web portal to all federal, state and local government web resources and services.